createdAt,value
2019-05-21T00:05:36.200Z,0
2019-05-21T00:06:16.759Z,0
2019-05-21T00:06:57.324Z,0
2019-05-21T00:07:37.878Z,0
2019-05-21T00:08:18.429Z,0
2019-05-21T00:08:59.025Z,0
2019-05-21T00:09:39.614Z,0
2019-05-21T00:10:20.193Z,0
2019-05-21T00:11:00.759Z,0
2019-05-21T00:11:41.378Z,0
2019-05-21T00:17:05.959Z,0
2019-05-21T00:17:46.516Z,0
2019-05-21T00:18:27.113Z,0
2019-05-21T00:19:07.684Z,0
2019-05-21T00:19:48.237Z,0
2019-05-21T00:20:28.836Z,0
2019-05-21T00:21:09.403Z,0
2019-05-21T00:21:49.986Z,0
2019-05-21T00:22:30.651Z,0
2019-05-21T00:23:11.138Z,0
2019-05-21T00:29:16.295Z,0
2019-05-21T00:29:56.854Z,0
2019-05-21T00:30:37.421Z,0
2019-05-21T00:31:17.982Z,0
2019-05-21T00:31:58.545Z,0
2019-05-21T00:32:39.132Z,0
2019-05-21T00:33:19.724Z,0
2019-05-21T00:34:00.296Z,0
2019-05-21T00:34:43.731Z,0
2019-05-21T00:40:46.023Z,0
2019-05-21T00:41:26.582Z,0
2019-05-21T00:42:07.138Z,0
2019-05-21T00:42:47.805Z,0
2019-05-21T00:43:28.380Z,0
2019-05-21T00:44:08.960Z,0
2019-05-21T00:44:49.560Z,0
2019-05-21T00:45:30.157Z,0
2019-05-21T00:46:10.752Z,0
2019-05-21T00:46:51.303Z,0
2019-05-21T00:52:16.049Z,0
2019-05-21T00:52:56.652Z,0
2019-05-21T00:53:37.216Z,0
2019-05-21T00:54:17.779Z,0
2019-05-21T00:54:58.354Z,0
2019-05-21T00:55:38.953Z,0
2019-05-21T00:56:19.525Z,0
2019-05-21T00:57:00.096Z,0
2019-05-21T00:57:40.688Z,0
2019-05-21T00:58:21.254Z,0
2019-05-21T01:04:26.401Z,0
2019-05-21T01:05:06.971Z,0
2019-05-21T01:05:47.550Z,0
2019-05-21T01:06:28.113Z,0
2019-05-21T01:07:08.678Z,0
2019-05-21T01:07:49.268Z,0
2019-05-21T01:08:29.938Z,0
2019-05-21T01:09:10.419Z,0
2019-05-21T01:09:51.029Z,0
2019-05-21T01:15:56.193Z,0
2019-05-21T01:16:36.759Z,0
2019-05-21T01:17:17.341Z,0
2019-05-21T01:17:57.915Z,0
2019-05-21T01:18:38.484Z,0
2019-05-21T01:19:19.158Z,0
2019-05-21T01:19:59.692Z,0
2019-05-21T01:20:40.250Z,0
2019-05-21T01:21:20.898Z,0
2019-05-21T01:27:26.057Z,0
2019-05-21T01:28:06.614Z,0
2019-05-21T01:28:47.200Z,0
2019-05-21T01:29:27.789Z,0
2019-05-21T01:30:08.357Z,0
2019-05-21T01:30:48.959Z,0
2019-05-21T01:31:29.598Z,0
2019-05-21T01:32:10.160Z,0
2019-05-21T01:32:50.728Z,0
2019-05-21T01:33:31.283Z,0
2019-05-21T01:38:56.006Z,0
2019-05-21T01:39:36.619Z,0
2019-05-21T01:40:17.190Z,0
2019-05-21T01:40:57.750Z,0
2019-05-21T01:41:38.397Z,0
2019-05-21T01:42:18.881Z,0
2019-05-21T01:42:59.447Z,0
2019-05-21T01:43:40.080Z,0
2019-05-21T01:44:20.694Z,0
2019-05-21T01:45:01.369Z,0
2019-05-21T01:50:25.918Z,0
2019-05-21T01:51:06.487Z,0
2019-05-21T01:51:47.074Z,0
2019-05-21T01:52:27.799Z,0
2019-05-21T01:53:08.361Z,0
2019-05-21T01:53:48.930Z,0
2019-05-21T01:54:29.505Z,0
2019-05-21T01:55:10.276Z,0
2019-05-21T01:55:50.851Z,0
2019-05-21T02:01:56.158Z,0
2019-05-21T02:02:36.754Z,0
2019-05-21T02:03:17.324Z,0
2019-05-21T02:03:57.867Z,0
2019-05-21T02:04:38.444Z,0
2019-05-21T02:05:31.987Z,0
2019-05-21T02:05:59.575Z,0
2019-05-21T02:06:40.130Z,0
2019-05-21T02:07:20.809Z,0
2019-05-21T02:13:26.015Z,0
2019-05-21T02:14:06.565Z,0
2019-05-21T02:14:47.143Z,0
2019-05-21T02:15:27.699Z,0
2019-05-21T02:16:08.535Z,0
2019-05-21T02:16:49.103Z,0
2019-05-21T02:17:29.697Z,0
2019-05-21T02:18:10.262Z,0
2019-05-21T02:18:53.822Z,0
2019-05-21T02:21:36.096Z,0
2019-05-21T02:22:16.683Z,0
2019-05-21T02:22:57.242Z,0
2019-05-21T02:23:37.824Z,0
2019-05-21T02:24:18.581Z,0
2019-05-21T02:24:59.154Z,0
2019-05-21T02:25:39.729Z,0
2019-05-21T02:26:20.291Z,0
2019-05-21T02:27:00.925Z,0
2019-05-21T02:33:06.143Z,4
2019-05-21T02:33:46.709Z,4
2019-05-21T02:34:27.274Z,4
2019-05-21T02:35:07.979Z,4
2019-05-21T02:35:53.967Z,8
2019-05-21T02:36:29.112Z,4
2019-05-21T02:37:09.686Z,4
2019-05-21T02:37:50.255Z,8
2019-05-21T02:38:30.817Z,8
2019-05-21T02:44:36.106Z,16
2019-05-21T02:45:16.691Z,16
2019-05-21T02:45:57.259Z,16
2019-05-21T02:46:37.814Z,20
2019-05-21T02:47:18.404Z,20
2019-05-21T02:47:58.959Z,24
2019-05-21T02:48:39.525Z,24
2019-05-21T02:49:20.147Z,28
2019-05-21T02:50:00.704Z,32
2019-05-21T02:50:41.292Z,32
2019-05-21T02:56:46.444Z,56
2019-05-21T02:57:27.035Z,56
2019-05-21T02:58:07.590Z,64
2019-05-21T02:58:48.164Z,68
2019-05-21T03:02:07.376Z,92
2019-05-21T03:02:47.956Z,96
2019-05-21T03:03:28.512Z,100
2019-05-21T03:04:09.076Z,108
2019-05-21T03:04:49.668Z,116
2019-05-21T03:05:30.222Z,124
2019-05-21T03:06:14.099Z,128
2019-05-21T03:06:51.343Z,136
2019-05-21T03:07:31.908Z,140
2019-05-21T03:08:12.463Z,148
2019-05-21T03:14:17.584Z,224
2019-05-21T03:14:58.148Z,232
2019-05-21T03:15:38.708Z,240
2019-05-21T03:16:19.433Z,252
2019-05-21T03:16:59.939Z,264
2019-05-21T03:17:40.530Z,276
2019-05-21T03:18:21.110Z,284
2019-05-21T03:19:01.653Z,296
2019-05-21T03:19:42.214Z,308
2019-05-21T03:25:07.329Z,408
2019-05-21T03:25:47.993Z,420
2019-05-21T03:26:28.653Z,436
2019-05-21T03:27:09.188Z,448
2019-05-21T03:27:49.743Z,460
2019-05-21T03:28:30.316Z,476
2019-05-21T03:29:10.947Z,488
2019-05-21T03:29:51.551Z,500
2019-05-21T03:30:32.118Z,512
2019-05-21T03:36:37.448Z,648
2019-05-21T03:37:18.026Z,660
2019-05-21T03:37:58.601Z,676
2019-05-21T03:41:13.094Z,748
2019-05-21T03:41:53.662Z,764
2019-05-21T03:42:34.250Z,776
2019-05-21T03:43:14.840Z,796
2019-05-21T03:43:55.421Z,812
2019-05-21T03:44:35.983Z,824
2019-05-21T03:45:16.564Z,840
2019-05-21T03:45:57.184Z,852
2019-05-21T03:46:45.538Z,876
2019-05-21T03:47:26.086Z,892
2019-05-21T03:48:06.782Z,904
2019-05-21T03:48:47.292Z,920
2019-05-21T03:49:27.865Z,936
2019-05-21T03:55:33.061Z,1072
2019-05-21T03:56:13.663Z,1088
2019-05-21T03:56:54.178Z,1100
2019-05-21T03:57:34.738Z,1120
2019-05-21T03:58:15.310Z,1144
2019-05-21T03:58:55.891Z,1160
2019-05-21T03:59:36.461Z,1180
2019-05-21T04:00:17.030Z,1192
2019-05-21T04:00:57.588Z,1204
2019-05-21T04:01:38.172Z,1220
2019-05-21T04:07:02.791Z,1332
2019-05-21T04:07:43.352Z,1340
2019-05-21T04:08:23.948Z,1356
2019-05-21T04:09:04.507Z,1368
2019-05-21T04:09:45.086Z,1384
2019-05-21T04:10:25.642Z,1400
2019-05-21T04:11:06.190Z,1412
2019-05-21T04:11:46.757Z,1428
2019-05-21T04:12:27.366Z,1444
2019-05-21T04:13:08.591Z,1456
2019-05-21T04:18:32.772Z,1600
2019-05-21T04:19:13.326Z,1624
2019-05-21T04:19:53.917Z,1644
2019-05-21T04:20:34.495Z,1664
2019-05-21T04:21:15.057Z,1680
2019-05-21T04:21:55.607Z,1700
2019-05-21T04:22:36.175Z,1712
2019-05-21T04:23:16.767Z,1724
2019-05-21T04:23:57.802Z,1724
2019-05-21T04:30:02.993Z,1868
2019-05-21T04:30:43.590Z,1892
2019-05-21T04:31:24.181Z,1912
2019-05-21T04:32:04.771Z,1924
2019-05-21T04:32:45.347Z,1932
2019-05-21T04:33:25.906Z,1956
2019-05-21T04:34:06.519Z,1968
2019-05-21T04:34:47.143Z,1988
2019-05-21T04:35:27.890Z,2000
2019-05-21T04:41:32.825Z,2156
2019-05-21T04:42:13.427Z,2164
2019-05-21T04:42:54.000Z,2184
2019-05-21T04:43:34.570Z,2196
2019-05-21T04:44:15.107Z,2208
2019-05-21T04:44:55.706Z,2220
2019-05-21T04:45:36.282Z,2228
2019-05-21T04:46:16.872Z,2236
2019-05-21T04:46:57.454Z,2252
2019-05-21T04:47:38.010Z,2272
2019-05-21T04:53:03.229Z,2432
2019-05-21T04:53:43.793Z,2456
2019-05-21T04:54:24.400Z,2488
2019-05-21T04:55:04.978Z,2488
2019-05-21T04:55:45.542Z,2512
2019-05-21T04:56:26.136Z,2548
2019-05-21T04:57:06.689Z,2568
2019-05-21T04:57:47.262Z,2596
2019-05-21T04:58:27.858Z,2632
2019-05-21T05:04:33.186Z,2788
2019-05-21T05:05:13.708Z,2824
2019-05-21T05:05:54.307Z,2840
2019-05-21T05:06:34.874Z,2836
2019-05-21T05:07:27.356Z,2868
2019-05-21T05:07:56.014Z,2912
2019-05-21T05:08:36.627Z,2936
2019-05-21T05:09:17.295Z,2928
2019-05-21T05:09:57.754Z,3000
2019-05-21T05:16:04.208Z,3184
2019-05-21T05:16:43.642Z,3228
2019-05-21T05:17:24.285Z,3260
2019-05-21T05:18:04.879Z,3264
2019-05-21T05:18:45.511Z,3284
2019-05-21T05:19:26.064Z,3328
2019-05-21T05:20:06.685Z,3376
2019-05-21T05:20:47.251Z,3436
2019-05-21T05:21:27.882Z,3484
2019-05-21T05:26:54.519Z,3972
2019-05-21T05:27:35.013Z,4680
2019-05-21T05:28:15.599Z,22016
2019-05-21T05:28:56.201Z,48000
2019-05-21T05:29:36.770Z,72320
2019-05-21T05:30:17.399Z,83776
2019-05-21T05:30:58.019Z,84032
2019-05-21T05:36:22.758Z,84960
2019-05-21T05:37:03.339Z,83360
2019-05-21T05:37:46.471Z,81632
2019-05-21T05:38:24.721Z,82368
2019-05-21T05:39:05.412Z,84832
2019-05-21T05:39:45.981Z,83328
2019-05-21T05:40:26.551Z,80832
2019-05-21T05:41:07.121Z,78944
2019-05-21T05:41:47.736Z,79776
2019-05-21T05:47:53.018Z,89184
2019-05-21T05:48:33.597Z,91328
2019-05-21T05:49:14.180Z,92448
2019-05-21T05:49:54.806Z,94592
2019-05-21T05:50:35.395Z,94144
2019-05-21T05:51:15.963Z,91968
2019-05-21T05:51:56.543Z,89952
2019-05-21T05:52:37.104Z,91392
2019-05-21T05:53:17.736Z,92512
2019-05-21T05:59:22.973Z,91712
2019-05-21T06:00:03.614Z,92704
2019-05-21T06:00:44.181Z,91136
2019-05-21T06:01:24.751Z,88224
2019-05-21T06:02:05.319Z,84960
2019-05-21T06:02:45.889Z,84768
2019-05-21T06:03:26.454Z,84640
2019-05-21T06:04:07.115Z,87904
2019-05-21T06:04:47.684Z,94528
2019-05-21T06:10:53.047Z,96416
2019-05-21T06:11:33.593Z,96608
2019-05-21T06:12:14.154Z,94752
2019-05-21T06:12:54.721Z,91520
2019-05-21T06:13:35.301Z,89920
2019-05-21T06:14:15.891Z,92416
2019-05-21T06:14:56.462Z,94560
2019-05-21T06:15:37.030Z,95008
2019-05-21T06:16:17.630Z,96448
2019-05-21T06:22:22.871Z,87968
2019-05-21T06:23:03.440Z,88832
2019-05-21T06:23:44.009Z,90176
2019-05-21T06:24:24.571Z,89184
2019-05-21T06:25:05.133Z,87264
2019-05-21T06:25:45.715Z,87744
2019-05-21T06:26:26.278Z,88960
2019-05-21T06:27:06.840Z,90400
2019-05-21T06:27:47.481Z,89792
2019-05-21T06:28:28.086Z,87168
2019-05-21T06:33:52.824Z,88800
2019-05-21T06:34:33.423Z,85120
2019-05-21T06:35:14.010Z,83456
2019-05-21T06:35:54.583Z,84704
2019-05-21T06:36:35.201Z,88480
2019-05-21T06:37:15.779Z,89888
2019-05-21T06:37:56.377Z,89568
2019-05-21T06:38:36.952Z,90080
2019-05-21T06:39:17.601Z,90560
2019-05-21T06:45:22.995Z,99840
2019-05-21T06:46:03.598Z,48448
2019-05-21T06:46:44.172Z,59776
2019-05-21T06:47:24.786Z,69472
2019-05-21T06:48:05.355Z,87424
2019-05-21T06:48:45.921Z,83552
2019-05-21T06:49:26.493Z,91616
2019-05-21T06:50:07.087Z,93248
2019-05-21T06:50:47.658Z,96928
2019-05-21T06:56:53.125Z,90720
2019-05-21T06:57:33.701Z,90816
2019-05-21T06:58:14.309Z,88128
2019-05-21T06:58:54.887Z,83232
2019-05-21T06:59:35.485Z,84608
2019-05-21T07:00:16.074Z,85664
2019-05-21T07:00:56.647Z,88064
2019-05-21T07:01:37.386Z,88672
2019-05-21T07:02:17.956Z,90464
2019-05-21T07:08:33.913Z,89504
2019-05-21T07:09:03.824Z,89120
2019-05-21T07:09:44.434Z,89856
2019-05-21T07:10:25.073Z,90528
2019-05-21T07:11:05.642Z,92768
2019-05-21T07:11:46.201Z,95008
2019-05-21T07:15:00.239Z,93600
2019-05-21T07:15:40.811Z,93056
2019-05-21T07:16:21.445Z,91456
2019-05-21T07:17:01.985Z,88736
2019-05-21T07:17:42.572Z,86816
2019-05-21T07:18:23.132Z,85984
2019-05-21T07:19:03.705Z,86880
2019-05-21T07:19:44.306Z,89024
2019-05-21T07:20:24.945Z,92480
2019-05-21T07:26:30.263Z,88000
2019-05-21T07:27:10.867Z,91488
2019-05-21T07:27:51.436Z,92448
2019-05-21T07:28:32.069Z,93568
2019-05-21T07:29:12.725Z,93376
2019-05-21T07:29:53.228Z,92576
2019-05-21T07:30:33.806Z,93952
2019-05-21T07:31:17.326Z,94368
2019-05-21T07:31:55.049Z,94752
2019-05-21T07:37:19.983Z,88736
2019-05-21T07:38:00.587Z,88832
2019-05-21T07:38:52.405Z,86208
2019-05-21T07:39:21.789Z,80896
2019-05-21T07:40:02.375Z,77792
2019-05-21T07:40:43.119Z,72512
2019-05-21T07:41:23.556Z,69536
2019-05-21T07:42:04.123Z,59520
2019-05-21T07:42:44.705Z,53184
2019-05-21T07:43:25.339Z,57536
2019-05-21T07:48:50.296Z,85440
2019-05-21T07:49:30.920Z,85568
2019-05-21T07:50:11.492Z,87008
2019-05-21T07:50:52.088Z,86784
2019-05-21T07:51:32.680Z,88896
2019-05-21T07:52:13.304Z,87008
2019-05-21T07:52:53.878Z,86080
2019-05-21T07:53:34.450Z,87168
2019-05-21T07:54:15.066Z,88832
2019-05-21T07:59:56.770Z,17696
2019-05-21T08:00:37.333Z,16896
2019-05-21T08:01:17.909Z,16320
2019-05-21T08:01:58.478Z,15936
2019-05-21T08:02:39.085Z,15712
2019-05-21T08:03:19.692Z,15392
2019-05-21T08:05:32.588Z,14424
2019-05-21T08:06:15.012Z,14240
2019-05-21T08:06:53.746Z,14000
2019-05-21T08:07:34.306Z,13796
2019-05-21T08:08:14.961Z,13524
2019-05-21T08:09:11.293Z,13256
2019-05-21T08:09:36.129Z,12924
2019-05-21T08:10:16.696Z,12632
2019-05-21T08:10:57.280Z,12364
2019-05-21T08:17:02.535Z,9960
2019-05-21T08:17:43.099Z,9744
2019-05-21T08:18:23.664Z,9608
2019-05-21T08:19:04.220Z,9524
2019-05-21T08:19:44.824Z,9408
2019-05-21T08:20:25.395Z,9264
2019-05-21T08:21:05.982Z,9104
2019-05-21T08:21:46.565Z,8896
2019-05-21T08:22:27.138Z,8656
2019-05-21T08:28:32.409Z,8192
2019-05-21T08:29:12.979Z,7992
2019-05-21T08:29:53.549Z,7724
2019-05-21T08:30:34.116Z,6988
2019-05-21T08:31:14.698Z,4736
2019-05-21T08:31:55.271Z,7160
2019-05-21T08:32:35.853Z,7148
2019-05-21T08:33:16.453Z,7024
2019-05-21T08:33:57.015Z,6808
2019-05-21T08:34:37.645Z,6700
2019-05-21T08:40:02.200Z,6048
2019-05-21T08:40:42.821Z,5916
2019-05-21T08:41:23.388Z,5880
2019-05-21T08:42:03.990Z,5792
2019-05-21T08:42:44.570Z,5720
2019-05-21T08:43:25.158Z,5684
2019-05-21T08:44:05.754Z,5700
2019-05-21T08:44:46.311Z,5680
2019-05-21T08:45:26.892Z,5652
2019-05-21T08:46:07.477Z,5728
2019-05-21T08:52:12.620Z,6216
2019-05-21T08:52:53.189Z,6244
2019-05-21T08:53:33.833Z,6176
2019-05-21T08:54:14.330Z,6068
2019-05-21T08:54:56.341Z,6144
2019-05-21T08:58:08.842Z,6800
2019-05-21T08:58:49.422Z,6948
2019-05-21T08:59:30.004Z,7048
2019-05-21T09:00:10.593Z,7100
2019-05-21T09:00:51.213Z,7100
2019-05-21T09:01:31.814Z,6964
2019-05-21T09:02:12.366Z,5876
2019-05-21T09:02:52.950Z,6344
2019-05-21T09:05:21.062Z,4528
2019-05-21T09:06:01.643Z,4864
2019-05-21T09:06:42.205Z,5704
2019-05-21T09:07:22.774Z,5976
2019-05-21T09:08:03.345Z,5720
2019-05-21T09:08:43.905Z,5524
2019-05-21T09:09:24.477Z,5344
2019-05-21T09:10:05.038Z,5268
2019-05-21T09:10:45.597Z,5228
2019-05-21T09:16:50.815Z,6348
2019-05-21T09:17:31.389Z,6412
2019-05-21T09:18:11.959Z,6544
2019-05-21T09:18:52.591Z,6576
2019-05-21T09:19:36.310Z,6400
2019-05-21T09:20:13.769Z,6320
2019-05-21T09:23:27.692Z,6956
2019-05-21T09:24:08.473Z,7324
2019-05-21T09:24:49.057Z,7356
2019-05-21T09:25:29.620Z,7364
2019-05-21T09:26:10.323Z,7572
2019-05-21T09:26:50.904Z,7772
2019-05-21T09:27:31.504Z,7692
2019-05-21T09:28:12.064Z,7880
2019-05-21T09:28:52.617Z,7844
2019-05-21T09:32:01.316Z,6880
2019-05-21T09:32:41.917Z,6696
2019-05-21T09:33:22.483Z,6324
2019-05-21T09:34:03.048Z,5780
2019-05-21T09:34:48.452Z,5356
2019-05-21T09:35:24.199Z,4180
2019-05-21T09:36:04.753Z,4096
2019-05-21T09:36:45.368Z,4100
2019-05-21T09:37:25.963Z,4240
2019-05-21T09:43:31.187Z,5608
2019-05-21T09:44:11.755Z,5688
2019-05-21T09:44:52.331Z,5820
2019-05-21T09:45:32.883Z,6176
2019-05-21T09:46:13.430Z,6536
2019-05-21T09:46:54.012Z,7260
2019-05-21T09:47:34.591Z,7192
2019-05-21T09:48:15.210Z,7344
2019-05-21T09:48:56.225Z,7568
2019-05-21T09:49:36.381Z,7828
2019-05-21T09:55:01.051Z,7712
2019-05-21T09:55:41.635Z,7408
2019-05-21T09:56:22.204Z,7220
2019-05-21T09:57:02.792Z,7220
2019-05-21T09:57:43.447Z,7224
2019-05-21T09:58:24.025Z,7192
2019-05-21T09:59:04.684Z,7044
2019-05-21T09:59:45.326Z,6924
2019-05-21T10:00:25.939Z,6760
2019-05-21T10:06:31.339Z,6440
2019-05-21T10:07:11.969Z,6308
2019-05-21T10:07:52.571Z,6272
2019-05-21T10:08:33.168Z,6164
2019-05-21T10:09:13.788Z,5464
2019-05-21T10:09:54.395Z,5152
2019-05-21T10:10:35.053Z,5644
2019-05-21T10:11:15.681Z,5676
2019-05-21T10:11:56.235Z,5752
2019-05-21T10:17:21.015Z,6216
2019-05-21T10:18:01.607Z,6268
2019-05-21T10:18:42.252Z,6364
2019-05-21T10:19:22.876Z,6512
2019-05-21T10:20:03.489Z,6732
2019-05-21T10:20:44.090Z,6876
2019-05-21T10:21:24.673Z,7028
2019-05-21T10:22:05.295Z,7160
2019-05-21T10:22:45.866Z,7276
2019-05-21T10:28:51.422Z,7396
2019-05-21T10:29:31.988Z,7288
2019-05-21T10:30:12.551Z,7060
2019-05-21T10:30:53.155Z,6792
2019-05-21T10:31:33.739Z,6576
2019-05-21T10:32:14.333Z,6524
2019-05-21T10:32:54.903Z,6496
2019-05-21T10:33:35.482Z,6376
2019-05-21T10:34:16.081Z,5236
2019-05-21T10:40:21.270Z,5700
2019-05-21T10:41:01.937Z,5688
2019-05-21T10:41:45.840Z,5536
2019-05-21T10:42:23.103Z,5392
2019-05-21T10:43:03.697Z,5080
2019-05-21T10:43:44.285Z,4700
2019-05-21T10:44:24.870Z,4428
2019-05-21T10:45:05.516Z,4284
2019-05-21T10:45:46.092Z,4352
2019-05-21T10:51:51.530Z,5732
2019-05-21T10:52:32.173Z,5504
2019-05-21T10:53:12.801Z,5364
2019-05-21T10:53:53.386Z,5428
2019-05-21T10:54:33.971Z,5528
2019-05-21T10:55:16.068Z,5616
2019-05-21T10:55:55.154Z,5544
2019-05-21T10:56:47.100Z,5428
2019-05-21T10:57:16.365Z,5300
2019-05-21T11:02:41.009Z,6044
2019-05-21T11:03:21.635Z,6320
2019-05-21T11:04:02.208Z,6384
2019-05-21T11:04:42.778Z,6304
2019-05-21T11:05:23.330Z,6244
2019-05-21T11:06:09.900Z,6132
2019-05-21T11:06:44.505Z,5940
2019-05-21T11:07:25.089Z,5840
2019-05-21T11:08:22.655Z,5780
2019-05-21T11:12:51.575Z,5676
2019-05-21T11:13:32.374Z,5240
2019-05-21T11:14:12.965Z,5152
2019-05-21T11:14:53.682Z,5072
2019-05-21T11:15:34.423Z,4956
2019-05-21T11:16:15.062Z,4896
2019-05-21T11:16:55.721Z,4896
2019-05-21T11:17:49.902Z,4952
2019-05-21T11:21:01.482Z,5152
2019-05-21T11:21:42.381Z,5100
2019-05-21T11:22:23.258Z,5048
2019-05-21T11:23:04.296Z,5012
2019-05-21T11:23:45.184Z,5000
2019-05-21T11:26:59.329Z,5024
2019-05-21T11:27:40.438Z,5016
2019-05-21T11:28:21.185Z,5024
2019-05-21T11:29:01.794Z,5000
2019-05-21T11:29:43.311Z,4980
2019-05-21T11:30:24.377Z,4984
2019-05-21T11:34:29.129Z,5304
2019-05-21T11:35:09.680Z,5380
2019-05-21T11:35:50.661Z,5440
2019-05-21T11:36:31.805Z,5460
2019-05-21T11:37:12.811Z,5428
2019-05-21T11:37:53.445Z,5376
2019-05-21T11:38:39.736Z,5308
2019-05-21T11:42:14.795Z,4756
2019-05-21T11:42:55.343Z,4660
2019-05-21T11:43:36.355Z,4564
2019-05-21T11:44:17.208Z,4468
2019-05-21T11:44:57.920Z,4388
2019-05-21T11:45:38.476Z,4312
2019-05-21T11:46:19.137Z,4244
2019-05-21T11:52:24.470Z,3696
2019-05-21T11:53:05.070Z,3640
2019-05-21T11:53:45.675Z,3572
2019-05-21T11:54:26.278Z,3484
2019-05-21T11:55:06.928Z,3400
2019-05-21T11:55:47.482Z,3328
2019-05-21T11:56:28.066Z,3260
2019-05-21T11:57:08.679Z,3204
2019-05-21T11:57:49.296Z,3176
2019-05-21T12:03:14.187Z,3140
2019-05-21T12:03:54.727Z,3164
2019-05-21T12:04:35.381Z,3188
2019-05-21T12:05:16.151Z,3204
2019-05-21T12:05:56.833Z,3200
2019-05-21T12:06:37.503Z,3220
2019-05-21T12:07:18.453Z,3236
2019-05-21T12:07:59.027Z,3260
2019-05-21T12:14:04.601Z,3876
2019-05-21T12:14:45.236Z,3924
2019-05-21T12:15:25.786Z,3836
2019-05-21T12:16:06.346Z,4016
2019-05-21T12:16:46.914Z,4144
2019-05-21T12:17:27.558Z,4296
2019-05-21T12:18:08.121Z,4360
2019-05-21T12:18:48.710Z,4348
2019-05-21T12:19:29.307Z,4320
2019-05-21T12:24:14.151Z,4768
2019-05-21T12:24:54.773Z,4916
2019-05-21T12:25:35.378Z,5056
2019-05-21T12:26:16.444Z,5164
2019-05-21T12:26:57.185Z,5236
2019-05-21T12:27:38.175Z,5396
2019-05-21T12:28:19.453Z,5272
2019-05-21T12:32:24.131Z,4892
2019-05-21T12:33:05.090Z,4916
2019-05-21T12:33:45.849Z,5692
2019-05-21T12:34:26.440Z,5444
2019-05-21T12:35:07.485Z,5184
2019-05-21T12:35:48.164Z,5120
2019-05-21T12:36:28.813Z,5120
2019-05-21T12:37:09.419Z,4372
2019-05-21T12:39:54.666Z,3956
2019-05-21T12:40:35.776Z,3840
2019-05-21T12:41:17.030Z,3752
2019-05-21T12:41:58.238Z,3668
2019-05-21T12:42:39.381Z,3668
2019-05-21T12:46:04.933Z,3972
2019-05-21T12:46:45.550Z,4216
2019-05-21T12:47:26.539Z,4268
2019-05-21T12:48:07.800Z,4416
2019-05-21T12:48:48.948Z,4356
2019-05-21T12:52:14.690Z,4728
2019-05-21T12:52:55.663Z,5084
2019-05-21T12:53:36.690Z,4944
2019-05-21T12:54:17.639Z,4900
2019-05-21T12:54:58.658Z,4636
2019-05-21T12:58:13.021Z,4416
2019-05-21T12:58:54.063Z,4868
2019-05-21T12:59:35.072Z,4364
2019-05-21T13:00:15.838Z,4820
2019-05-21T13:00:56.945Z,4160
2019-05-21T13:04:11.507Z,5012
2019-05-21T13:04:52.591Z,4016
2019-05-21T13:05:33.427Z,4116
2019-05-21T13:06:15.388Z,5036
2019-05-21T13:06:56.494Z,5316
2019-05-21T13:09:40.976Z,5276
2019-05-21T13:10:21.900Z,5316
2019-05-21T13:11:02.914Z,5364
2019-05-21T13:11:43.639Z,5472
2019-05-21T13:12:24.350Z,5588
2019-05-21T13:13:04.934Z,5700
2019-05-21T13:13:45.502Z,5748
2019-05-21T13:14:26.086Z,5736
2019-05-21T13:19:50.868Z,5816
2019-05-21T13:20:31.455Z,5680
2019-05-21T13:21:12.038Z,5320
2019-05-21T13:21:52.659Z,5456
2019-05-21T13:22:33.295Z,5368
2019-05-21T13:23:13.934Z,5832
2019-05-21T13:23:54.583Z,6172
2019-05-21T13:24:35.203Z,5548
2019-05-21T13:25:15.800Z,5676
2019-05-21T13:31:21.338Z,6032
2019-05-21T13:32:01.908Z,6244
2019-05-21T13:32:43.851Z,6272
2019-05-21T13:33:23.114Z,6248
2019-05-21T13:34:03.719Z,6304
2019-05-21T13:34:44.310Z,6172
2019-05-21T13:35:24.903Z,6344
2019-05-21T13:36:05.536Z,6264
2019-05-21T13:36:46.088Z,6340
2019-05-21T13:42:10.878Z,5992
2019-05-21T13:42:51.480Z,5836
2019-05-21T13:43:32.038Z,5784
2019-05-21T13:44:12.629Z,5712
2019-05-21T13:44:53.282Z,5592
2019-05-21T13:45:33.904Z,5500
2019-05-21T13:46:14.487Z,5480
2019-05-21T13:46:55.032Z,5388
2019-05-21T13:47:35.642Z,5344
2019-05-21T13:53:40.983Z,5336
2019-05-21T13:54:21.642Z,5344
2019-05-21T13:55:02.265Z,5444
2019-05-21T13:55:42.821Z,5440
2019-05-21T13:56:23.438Z,5476
2019-05-21T13:57:04.050Z,5436
2019-05-21T13:57:44.694Z,5428
2019-05-21T13:58:25.346Z,5592
2019-05-21T13:59:05.977Z,5572
2019-05-21T14:04:31.135Z,6388
2019-05-21T14:05:11.753Z,6264
2019-05-21T14:05:52.409Z,6220
2019-05-21T14:06:33.037Z,5880
2019-05-21T14:07:13.925Z,5048
2019-05-21T14:07:54.519Z,6604
2019-05-21T14:08:35.179Z,6576
2019-05-21T14:09:15.763Z,5852
2019-05-21T14:14:40.864Z,6012
2019-05-21T14:15:21.927Z,5928
2019-05-21T14:16:02.607Z,5836
2019-05-21T14:16:43.615Z,5652
2019-05-21T14:17:24.428Z,5436
2019-05-21T14:18:05.311Z,4140
2019-05-21T14:18:46.181Z,3488
2019-05-21T14:23:30.888Z,3868
2019-05-21T14:24:11.740Z,3000
2019-05-21T14:24:52.327Z,2860
2019-05-21T14:25:32.913Z,2780
2019-05-21T14:26:13.560Z,2704
2019-05-21T14:26:54.086Z,2636
2019-05-21T14:27:44.191Z,2608
2019-05-21T14:28:15.209Z,2604
2019-05-21T14:28:55.970Z,2784
2019-05-21T14:33:00.793Z,2180
2019-05-21T14:33:41.700Z,2160
2019-05-21T14:34:22.591Z,2628
2019-05-21T14:35:03.445Z,1924
2019-05-21T14:35:44.267Z,1808
2019-05-21T14:36:25.278Z,1720
2019-05-21T14:37:06.061Z,1652
2019-05-21T14:41:27.440Z,1292
2019-05-21T14:42:08.440Z,1272
2019-05-21T14:42:58.998Z,1248
2019-05-21T14:43:30.451Z,1236
2019-05-21T14:44:11.517Z,1240
2019-05-21T14:44:52.637Z,1228
2019-05-21T14:48:17.414Z,1168
2019-05-21T14:48:59.321Z,1160
2019-05-21T14:49:40.210Z,1160
2019-05-21T14:50:21.093Z,1160
2019-05-21T14:51:01.988Z,1160
2019-05-21T14:56:27.036Z,1164
2019-05-21T14:57:07.603Z,1156
2019-05-21T14:57:48.246Z,1152
2019-05-21T14:58:28.871Z,1140
2019-05-21T14:59:09.566Z,1132
2019-05-21T14:59:50.197Z,1116
2019-05-21T15:00:30.848Z,1112
2019-05-21T15:01:11.478Z,1108
2019-05-21T15:01:52.070Z,1096
2019-05-21T15:07:16.908Z,1064
2019-05-21T15:07:57.545Z,1080
2019-05-21T15:08:38.134Z,1084
2019-05-21T15:09:18.846Z,1100
2019-05-21T15:09:59.437Z,1120
2019-05-21T15:10:48.320Z,1132
2019-05-21T15:11:20.642Z,1148
2019-05-21T15:12:01.240Z,1164
2019-05-21T15:12:41.808Z,1180
2019-05-21T15:18:47.270Z,1308
2019-05-21T15:19:27.940Z,1332
2019-05-21T15:20:08.539Z,1340
2019-05-21T15:20:49.119Z,1344
2019-05-21T15:21:29.761Z,1348
2019-05-21T15:22:10.316Z,1348
2019-05-21T15:22:50.886Z,1356
2019-05-21T15:23:31.462Z,1372
2019-05-21T15:24:12.301Z,1372
2019-05-21T15:29:36.969Z,1440
2019-05-21T15:30:17.603Z,1452
2019-05-21T15:32:30.911Z,1520
2019-05-21T15:33:11.055Z,1548
2019-05-21T15:33:51.778Z,1572
2019-05-21T15:34:32.351Z,1640
2019-05-21T15:35:12.952Z,1696
2019-05-21T15:35:53.507Z,1560
2019-05-21T15:36:34.076Z,1556
2019-05-21T15:37:14.651Z,1568
2019-05-21T15:37:55.234Z,1544
2019-05-21T15:44:00.697Z,1616
2019-05-21T15:44:41.352Z,1640
2019-05-21T15:45:21.938Z,1636
2019-05-21T15:46:02.657Z,1636
2019-05-21T15:46:48.096Z,1632
2019-05-21T15:47:23.959Z,1640
2019-05-21T15:48:04.523Z,1644
2019-05-21T15:48:45.284Z,1652
2019-05-21T15:55:07.504Z,3412
2019-05-21T15:55:47.570Z,3680
2019-05-21T15:56:28.119Z,3648
2019-05-21T15:57:10.518Z,3596
2019-05-21T15:57:49.237Z,3508
2019-05-21T15:58:29.896Z,3516
2019-05-21T15:59:10.471Z,3476
2019-05-21T15:59:51.043Z,3384
2019-05-21T16:00:31.619Z,3140
2019-05-21T16:05:56.670Z,2260
2019-05-21T16:06:37.261Z,2948
2019-05-21T16:09:51.313Z,3424
2019-05-21T16:10:32.022Z,3460
2019-05-21T16:11:27.250Z,3408
2019-05-21T16:11:53.159Z,3416
2019-05-21T16:12:33.734Z,3388
2019-05-21T16:13:14.289Z,3372
2019-05-21T16:13:54.848Z,3404
2019-05-21T16:14:35.549Z,3464
2019-05-21T16:15:16.120Z,3468
2019-05-21T16:21:21.319Z,1852
2019-05-21T16:22:01.898Z,1856
2019-05-21T16:25:15.811Z,2576
2019-05-21T16:25:56.391Z,2512
2019-05-21T16:26:36.977Z,2640
2019-05-21T16:27:17.626Z,2816
2019-05-21T16:27:58.214Z,2768
2019-05-21T16:28:38.787Z,2636